sensor_id;sensor_type;location;lat;lon;timestamp;temperature;humidity
13123;DHT22;6627;50.920;12.050;2023-06-14T00:01:50;13.50;99.90
13123;DHT22;6627;50.920;12.050;2023-06-14T00:04:19;13.40;99.90
13123;DHT22;6627;50.920;12.050;2023-06-14T00:06:48;13.20;99.90
13123;DHT22;6627;50.920;12.050;2023-06-14T00:09:16;13.20;99.90
13123;DHT22;6627;50.920;12.050;2023-06-14T00:11:44;13.20;99.90
13123;DHT22;6627;50.920;12.050;2023-06-14T00:14:11;13.20;99.90
13123;DHT22;6627;50.920;12.050;2023-06-14T00:16:39;13.10;99.90
13123;DHT22;6627;50.920;12.050;2023-06-14T00:19:08;13.00;99.90
13123;DHT22;6627;50.920;12.050;2023-06-14T00:21:37;13.00;99.90
13123;DHT22;6627;50.920;12.050;2023-06-14T00:24:05;12.90;99.90
13123;DHT22;6627;50.920;12.050;2023-06-14T00:26:34;13.00;99.90
13123;DHT22;6627;50.920;12.050;2023-06-14T00:29:02;13.10;99.90
13123;DHT22;6627;50.920;12.050;2023-06-14T00:31:29;13.10;99.90
13123;DHT22;6627;50.920;12.050;2023-06-14T00:33:57;13.10;99.90
13123;DHT22;6627;50.920;12.050;2023-06-14T00:36:24;12.80;99.90
13123;DHT22;6627;50.920;12.050;2023-06-14T00:38:52;12.70;99.90
13123;DHT22;6627;50.920;12.050;2023-06-14T00:41:20;12.80;99.90
13123;DHT22;6627;50.920;12.050;2023-06-14T00:43:47;12.80;99.90
13123;DHT22;6627;50.920;12.050;2023-06-14T00:46:14;12.60;99.90
13123;DHT22;6627;50.920;12.050;2023-06-14T00:48:42;12.50;99.90
13123;DHT22;6627;50.920;12.050;2023-06-14T00:51:09;12.40;99.90
13123;DHT22;6627;50.920;12.050;2023-06-14T00:53:37;12.50;99.90
13123;DHT22;6627;50.920;12.050;2023-06-14T00:56:07;12.20;99.90
13123;DHT22;6627;50.920;12.050;2023-06-14T00:58:34;12.20;99.90
13123;DHT22;6627;50.920;12.050;2023-06-14T01:01:01;12.20;99.90
13123;DHT22;6627;50.920;12.050;2023-06-14T01:03:29;11.90;99.90
13123;DHT22;6627;50.920;12.050;2023-06-14T01:06:05;12.10;99.90
13123;DHT22;6627;50.920;12.050;2023-06-14T01:08:46;11.90;99.90
13123;DHT22;6627;50.920;12.050;2023-06-14T01:11:25;11.80;99.90
13123;DHT22;6627;50.920;12.050;2023-06-14T01:14:00;11.90;99.90
13123;DHT22;6627;50.920;12.050;2023-06-14T01:16:30;12.00;99.90
13123;DHT22;6627;50.920;12.050;2023-06-14T01:18:58;12.10;99.90
13123;DHT22;6627;50.920;12.050;2023-06-14T01:21:28;12.10;99.90
13123;DHT22;6627;50.920;12.050;2023-06-14T01:23:56;12.10;99.90
13123;DHT22;6627;50.920;12.050;2023-06-14T01:26:24;12.30;99.90
13123;DHT22;6627;50.920;12.050;2023-06-14T01:28:55;12.50;99.90
13123;DHT22;6627;50.920;12.050;2023-06-14T01:31:24;12.20;99.90
13123;DHT22;6627;50.920;12.050;2023-06-14T01:33:53;12.20;99.90
13123;DHT22;6627;50.920;12.050;2023-06-14T01:36:22;12.20;99.90
13123;DHT22;6627;50.920;12.050;2023-06-14T01:38:54;12.00;99.90
13123;DHT22;6627;50.920;12.050;2023-06-14T01:41:23;12.10;99.90
13123;DHT22;6627;50.920;12.050;2023-06-14T01:43:52;11.80;99.90
13123;DHT22;6627;50.920;12.050;2023-06-14T01:46:22;11.70;99.90
13123;DHT22;6627;50.920;12.050;2023-06-14T01:48:50;11.80;99.90
13123;DHT22;6627;50.920;12.050;2023-06-14T01:51:18;11.70;99.90
13123;DHT22;6627;50.920;12.050;2023-06-14T01:53:45;11.80;99.90
13123;DHT22;6627;50.920;12.050;2023-06-14T01:56:12;11.50;99.90
13123;DHT22;6627;50.920;12.050;2023-06-14T01:58:41;11.50;99.90
13123;DHT22;6627;50.920;12.050;2023-06-14T02:01:08;11.50;99.90
13123;DHT22;6627;50.920;12.050;2023-06-14T02:03:37;11.40;99.90
13123;DHT22;6627;50.920;12.050;2023-06-14T02:06:05;11.40;99.90
13123;DHT22;6627;50.920;12.050;2023-06-14T02:08:32;11.40;99.90
13123;DHT22;6627;50.920;12.050;2023-06-14T02:10:59;11.60;99.90
13123;DHT22;6627;50.920;12.050;2023-06-14T02:13:26;11.40;99.90
13123;DHT22;6627;50.920;12.050;2023-06-14T02:15:55;11.10;99.90
13123;DHT22;6627;50.920;12.050;2023-06-14T02:18:23;10.90;99.90
13123;DHT22;6627;50.920;12.050;2023-06-14T02:20:50;10.80;99.90
13123;DHT22;6627;50.920;12.050;2023-06-14T02:23:17;10.70;99.90
13123;DHT22;6627;50.920;12.050;2023-06-14T02:25:44;10.90;99.90
13123;DHT22;6627;50.920;12.050;2023-06-14T02:28:12;11.20;99.90
13123;DHT22;6627;50.920;12.050;2023-06-14T02:30:39;11.30;99.90
13123;DHT22;6627;50.920;12.050;2023-06-14T02:33:08;11.10;99.90
13123;DHT22;6627;50.920;12.050;2023-06-14T02:35:38;10.90;99.90
13123;DHT22;6627;50.920;12.050;2023-06-14T02:38:05;10.80;99.90
13123;DHT22;6627;50.920;12.050;2023-06-14T02:40:32;10.60;99.90
13123;DHT22;6627;50.920;12.050;2023-06-14T02:42:59;10.80;99.90
13123;DHT22;6627;50.920;12.050;2023-06-14T02:45:27;10.80;99.90
13123;DHT22;6627;50.920;12.050;2023-06-14T02:47:54;10.80;99.90
13123;DHT22;6627;50.920;12.050;2023-06-14T02:50:24;10.80;99.90
13123;DHT22;6627;50.920;12.050;2023-06-14T02:52:54;10.80;99.90
13123;DHT22;6627;50.920;12.050;2023-06-14T02:55:22;10.80;99.90
13123;DHT22;6627;50.920;12.050;2023-06-14T02:57:50;10.80;99.90
13123;DHT22;6627;50.920;12.050;2023-06-14T03:00:19;10.90;99.90
13123;DHT22;6627;50.920;12.050;2023-06-14T03:02:46;11.00;99.90
13123;DHT22;6627;50.920;12.050;2023-06-14T03:05:14;10.80;99.90
13123;DHT22;6627;50.920;12.050;2023-06-14T03:07:43;10.90;99.90
13123;DHT22;6627;50.920;12.050;2023-06-14T03:10:11;10.50;99.90
13123;DHT22;6627;50.920;12.050;2023-06-14T03:12:39;10.40;99.90
13123;DHT22;6627;50.920;12.050;2023-06-14T03:15:07;10.50;99.90
13123;DHT22;6627;50.920;12.050;2023-06-14T03:17:36;10.70;99.90
13123;DHT22;6627;50.920;12.050;2023-06-14T03:20:06;10.60;99.90
13123;DHT22;6627;50.920;12.050;2023-06-14T03:22:34;10.30;99.90
13123;DHT22;6627;50.920;12.050;2023-06-14T03:25:04;10.50;99.90
13123;DHT22;6627;50.920;12.050;2023-06-14T03:27:32;10.40;99.90
13123;DHT22;6627;50.920;12.050;2023-06-14T03:29:59;10.40;99.90
13123;DHT22;6627;50.920;12.050;2023-06-14T03:32:26;10.60;99.90
13123;DHT22;6627;50.920;12.050;2023-06-14T03:34:54;10.70;99.90
13123;DHT22;6627;50.920;12.050;2023-06-14T03:37:21;10.70;99.90
13123;DHT22;6627;50.920;12.050;2023-06-14T03:39:48;10.30;99.90
13123;DHT22;6627;50.920;12.050;2023-06-14T03:42:17;10.30;99.90
13123;DHT22;6627;50.920;12.050;2023-06-14T03:44:44;10.00;99.90
13123;DHT22;6627;50.920;12.050;2023-06-14T03:47:11;9.90;99.90
13123;DHT22;6627;50.920;12.050;2023-06-14T03:49:39;10.00;99.90
13123;DHT22;6627;50.920;12.050;2023-06-14T03:52:06;9.90;99.90
13123;DHT22;6627;50.920;12.050;2023-06-14T03:54:34;9.90;99.90
13123;DHT22;6627;50.920;12.050;2023-06-14T03:57:01;9.90;99.90
13123;DHT22;6627;50.920;12.050;2023-06-14T03:59:30;9.80;99.90
13123;DHT22;6627;50.920;12.050;2023-06-14T04:01:57;10.10;99.90
13123;DHT22;6627;50.920;12.050;2023-06-14T04:04:24;10.00;99.90
13123;DHT22;6627;50.920;12.050;2023-06-14T04:06:54;10.10;99.90
13123;DHT22;6627;50.920;12.050;2023-06-14T04:09:23;10.10;99.90
13123;DHT22;6627;50.920;12.050;2023-06-14T04:11:51;10.30;99.90
13123;DHT22;6627;50.920;12.050;2023-06-14T04:14:19;10.30;99.90
13123;DHT22;6627;50.920;12.050;2023-06-14T04:16:47;10.30;99.90
13123;DHT22;6627;50.920;12.050;2023-06-14T04:19:16;10.50;99.90
13123;DHT22;6627;50.920;12.050;2023-06-14T04:21:43;10.70;99.90
13123;DHT22;6627;50.920;12.050;2023-06-14T04:24:10;10.80;99.90
13123;DHT22;6627;50.920;12.050;2023-06-14T04:26:39;10.90;99.90
13123;DHT22;6627;50.920;12.050;2023-06-14T04:29:10;11.00;99.90
13123;DHT22;6627;50.920;12.050;2023-06-14T04:31:40;11.00;99.90
13123;DHT22;6627;50.920;12.050;2023-06-14T04:34:09;11.10;99.90
13123;DHT22;6627;50.920;12.050;2023-06-14T04:36:42;11.20;99.90
13123;DHT22;6627;50.920;12.050;2023-06-14T04:39:15;11.20;99.90
13123;DHT22;6627;50.920;12.050;2023-06-14T04:41:43;11.30;99.90
13123;DHT22;6627;50.920;12.050;2023-06-14T04:44:11;11.40;99.90
13123;DHT22;6627;50.920;12.050;2023-06-14T04:46:39;11.60;99.90
13123;DHT22;6627;50.920;12.050;2023-06-14T04:49:13;11.60;99.90
13123;DHT22;6627;50.920;12.050;2023-06-14T04:51:41;11.70;99.90
13123;DHT22;6627;50.920;12.050;2023-06-14T04:54:09;11.70;99.90
13123;DHT22;6627;50.920;12.050;2023-06-14T04:56:39;11.90;99.90
13123;DHT22;6627;50.920;12.050;2023-06-14T04:59:08;11.90;99.90
13123;DHT22;6627;50.920;12.050;2023-06-14T05:01:37;11.90;99.90
13123;DHT22;6627;50.920;12.050;2023-06-14T05:04:04;11.90;99.90
13123;DHT22;6627;50.920;12.050;2023-06-14T05:06:33;12.10;99.90
13123;DHT22;6627;50.920;12.050;2023-06-14T05:09:00;12.10;99.90
13123;DHT22;6627;50.920;12.050;2023-06-14T05:11:27;12.30;99.90
13123;DHT22;6627;50.920;12.050;2023-06-14T05:13:54;12.40;99.90
13123;DHT22;6627;50.920;12.050;2023-06-14T05:16:24;12.50;99.90
13123;DHT22;6627;50.920;12.050;2023-06-14T05:18:51;12.50;99.90
13123;DHT22;6627;50.920;12.050;2023-06-14T05:21:18;12.60;99.90
13123;DHT22;6627;50.920;12.050;2023-06-14T05:23:47;12.70;99.90
13123;DHT22;6627;50.920;12.050;2023-06-14T05:26:14;12.70;99.90
13123;DHT22;6627;50.920;12.050;2023-06-14T05:28:42;12.80;99.90
13123;DHT22;6627;50.920;12.050;2023-06-14T05:31:09;12.90;99.90
13123;DHT22;6627;50.920;12.050;2023-06-14T05:33:37;12.90;99.90
13123;DHT22;6627;50.920;12.050;2023-06-14T05:36:04;12.90;99.90
13123;DHT22;6627;50.920;12.050;2023-06-14T05:38:31;13.00;99.90
13123;DHT22;6627;50.920;12.050;2023-06-14T05:41:00;13.10;99.90
13123;DHT22;6627;50.920;12.050;2023-06-14T05:43:27;13.20;99.90
13123;DHT22;6627;50.920;12.050;2023-06-14T05:45:55;13.20;99.90
13123;DHT22;6627;50.920;12.050;2023-06-14T05:48:22;13.20;99.90
13123;DHT22;6627;50.920;12.050;2023-06-14T05:50:49;13.30;99.90
13123;DHT22;6627;50.920;12.050;2023-06-14T05:53:17;13.30;99.90
13123;DHT22;6627;50.920;12.050;2023-06-14T05:55:44;13.40;99.90
13123;DHT22;6627;50.920;12.050;2023-06-14T05:58:13;13.50;99.90
13123;DHT22;6627;50.920;12.050;2023-06-14T06:00:40;13.60;99.90
13123;DHT22;6627;50.920;12.050;2023-06-14T06:03:08;13.60;99.90
13123;DHT22;6627;50.920;12.050;2023-06-14T06:05:35;13.60;99.90
13123;DHT22;6627;50.920;12.050;2023-06-14T06:08:02;13.70;99.90
13123;DHT22;6627;50.920;12.050;2023-06-14T06:10:30;13.80;99.90
13123;DHT22;6627;50.920;12.050;2023-06-14T06:12:57;13.90;99.90
13123;DHT22;6627;50.920;12.050;2023-06-14T06:15:25;14.10;99.90
13123;DHT22;6627;50.920;12.050;2023-06-14T06:17:53;14.30;99.90
13123;DHT22;6627;50.920;12.050;2023-06-14T06:20:21;14.40;99.90
13123;DHT22;6627;50.920;12.050;2023-06-14T06:22:53;14.50;99.90
13123;DHT22;6627;50.920;12.050;2023-06-14T06:25:21;14.50;99.90
13123;DHT22;6627;50.920;12.050;2023-06-14T06:27:52;14.70;99.90
13123;DHT22;6627;50.920;12.050;2023-06-14T06:30:19;14.90;99.90
13123;DHT22;6627;50.920;12.050;2023-06-14T06:32:48;14.90;99.90
13123;DHT22;6627;50.920;12.050;2023-06-14T06:35:16;15.10;99.90
13123;DHT22;6627;50.920;12.050;2023-06-14T06:37:43;15.20;99.90
13123;DHT22;6627;50.920;12.050;2023-06-14T06:40:11;15.30;99.90
13123;DHT22;6627;50.920;12.050;2023-06-14T06:45:07;15.40;99.90
13123;DHT22;6627;50.920;12.050;2023-06-14T06:47:35;15.50;99.90
13123;DHT22;6627;50.920;12.050;2023-06-14T06:50:04;15.50;99.90
13123;DHT22;6627;50.920;12.050;2023-06-14T06:52:33;15.60;99.90
13123;DHT22;6627;50.920;12.050;2023-06-14T06:55:01;15.70;99.90
13123;DHT22;6627;50.920;12.050;2023-06-14T06:57:29;15.90;99.90
13123;DHT22;6627;50.920;12.050;2023-06-14T06:59:57;16.00;99.90
13123;DHT22;6627;50.920;12.050;2023-06-14T07:02:24;16.20;99.90
13123;DHT22;6627;50.920;12.050;2023-06-14T07:04:51;16.20;99.90
13123;DHT22;6627;50.920;12.050;2023-06-14T07:07:20;16.40;99.90
13123;DHT22;6627;50.920;12.050;2023-06-14T07:09:47;16.40;99.90
13123;DHT22;6627;50.920;12.050;2023-06-14T07:12:15;16.70;99.90
13123;DHT22;6627;50.920;12.050;2023-06-14T07:14:42;16.80;99.90
13123;DHT22;6627;50.920;12.050;2023-06-14T07:17:09;16.90;99.90
13123;DHT22;6627;50.920;12.050;2023-06-14T07:19:36;17.00;99.90
13123;DHT22;6627;50.920;12.050;2023-06-14T07:22:04;16.90;99.90
13123;DHT22;6627;50.920;12.050;2023-06-14T07:24:33;17.20;99.90
13123;DHT22;6627;50.920;12.050;2023-06-14T07:27:02;17.50;99.90
13123;DHT22;6627;50.920;12.050;2023-06-14T07:29:30;17.70;99.90
13123;DHT22;6627;50.920;12.050;2023-06-14T07:31:57;18.00;99.90
13123;DHT22;6627;50.920;12.050;2023-06-14T07:34:24;18.20;99.90
13123;DHT22;6627;50.920;12.050;2023-06-14T07:36:52;18.40;99.90
13123;DHT22;6627;50.920;12.050;2023-06-14T07:39:20;18.30;99.90
13123;DHT22;6627;50.920;12.050;2023-06-14T07:41:49;18.40;99.90
13123;DHT22;6627;50.920;12.050;2023-06-14T07:44:16;18.20;99.90
13123;DHT22;6627;50.920;12.050;2023-06-14T07:46:44;18.50;99.90
13123;DHT22;6627;50.920;12.050;2023-06-14T07:49:12;18.50;99.90
13123;DHT22;6627;50.920;12.050;2023-06-14T07:51:39;18.60;99.90
13123;DHT22;6627;50.920;12.050;2023-06-14T07:54:06;18.80;99.90
13123;DHT22;6627;50.920;12.050;2023-06-14T07:56:34;19.00;99.90
13123;DHT22;6627;50.920;12.050;2023-06-14T07:59:03;18.90;99.90
13123;DHT22;6627;50.920;12.050;2023-06-14T08:01:32;19.20;99.90
13123;DHT22;6627;50.920;12.050;2023-06-14T08:03:59;19.30;99.90
13123;DHT22;6627;50.920;12.050;2023-06-14T08:06:27;19.40;99.90
13123;DHT22;6627;50.920;12.050;2023-06-14T08:08:54;19.50;99.90
13123;DHT22;6627;50.920;12.050;2023-06-14T08:11:21;19.60;99.90
13123;DHT22;6627;50.920;12.050;2023-06-14T08:13:50;19.80;99.90
13123;DHT22;6627;50.920;12.050;2023-06-14T08:16:18;19.90;99.90
13123;DHT22;6627;50.920;12.050;2023-06-14T08:18:45;20.10;99.90
13123;DHT22;6627;50.920;12.050;2023-06-14T08:21:13;20.60;99.90
13123;DHT22;6627;50.920;12.050;2023-06-14T08:23:40;20.30;99.90
13123;DHT22;6627;50.920;12.050;2023-06-14T08:26:08;20.50;99.90
13123;DHT22;6627;50.920;12.050;2023-06-14T08:28:36;20.70;99.90
13123;DHT22;6627;50.920;12.050;2023-06-14T08:33:33;20.10;99.90
13123;DHT22;6627;50.920;12.050;2023-06-14T08:36:00;20.10;99.90
13123;DHT22;6627;50.920;12.050;2023-06-14T08:38:27;20.40;99.90
13123;DHT22;6627;50.920;12.050;2023-06-14T08:40:57;20.60;99.90
13123;DHT22;6627;50.920;12.050;2023-06-14T08:43:25;20.70;99.90
13123;DHT22;6627;50.920;12.050;2023-06-14T08:45:58;20.60;99.90
13123;DHT22;6627;50.920;12.050;2023-06-14T08:48:30;20.20;99.90
13123;DHT22;6627;50.920;12.050;2023-06-14T08:51:00;20.20;99.90
13123;DHT22;6627;50.920;12.050;2023-06-14T08:53:30;20.30;99.90
13123;DHT22;6627;50.920;12.050;2023-06-14T08:55:59;20.50;99.90
13123;DHT22;6627;50.920;12.050;2023-06-14T08:58:28;20.60;99.90
13123;DHT22;6627;50.920;12.050;2023-06-14T09:00:57;20.70;99.90
13123;DHT22;6627;50.920;12.050;2023-06-14T09:03:25;20.80;99.90
13123;DHT22;6627;50.920;12.050;2023-06-14T09:05:56;21.10;99.90
13123;DHT22;6627;50.920;12.050;2023-06-14T09:08:26;21.20;99.90
13123;DHT22;6627;50.920;12.050;2023-06-14T09:10:57;21.00;99.90
13123;DHT22;6627;50.920;12.050;2023-06-14T09:13:26;20.90;99.90
13123;DHT22;6627;50.920;12.050;2023-06-14T09:18:21;21.30;99.90
13123;DHT22;6627;50.920;12.050;2023-06-14T09:20:48;21.20;99.90
13123;DHT22;6627;50.920;12.050;2023-06-14T09:23:20;21.20;99.90
13123;DHT22;6627;50.920;12.050;2023-06-14T09:25:50;21.50;99.90
13123;DHT22;6627;50.920;12.050;2023-06-14T09:28:17;21.30;99.90
13123;DHT22;6627;50.920;12.050;2023-06-14T09:30:46;21.20;99.90
13123;DHT22;6627;50.920;12.050;2023-06-14T09:33:17;21.40;99.90
13123;DHT22;6627;50.920;12.050;2023-06-14T09:35:45;21.70;99.90
13123;DHT22;6627;50.920;12.050;2023-06-14T09:38:12;21.50;99.90
13123;DHT22;6627;50.920;12.050;2023-06-14T09:40:39;21.40;99.90
13123;DHT22;6627;50.920;12.050;2023-06-14T09:43:08;21.20;99.90
13123;DHT22;6627;50.920;12.050;2023-06-14T09:45:36;21.40;99.90
13123;DHT22;6627;50.920;12.050;2023-06-14T09:48:06;21.70;99.90
13123;DHT22;6627;50.920;12.050;2023-06-14T09:50:34;21.50;99.90
13123;DHT22;6627;50.920;12.050;2023-06-14T09:53:06;21.40;99.90
13123;DHT22;6627;50.920;12.050;2023-06-14T09:55:36;21.40;99.90
13123;DHT22;6627;50.920;12.050;2023-06-14T09:58:07;21.50;99.90
13123;DHT22;6627;50.920;12.050;2023-06-14T10:00:36;21.70;99.90
13123;DHT22;6627;50.920;12.050;2023-06-14T10:03:12;21.40;99.90
13123;DHT22;6627;50.920;12.050;2023-06-14T10:05:43;21.20;99.90
13123;DHT22;6627;50.920;12.050;2023-06-14T10:08:14;21.40;99.90
13123;DHT22;6627;50.920;12.050;2023-06-14T10:10:43;21.60;99.90
13123;DHT22;6627;50.920;12.050;2023-06-14T10:13:13;21.70;99.90
13123;DHT22;6627;50.920;12.050;2023-06-14T10:15:48;21.70;99.90
13123;DHT22;6627;50.920;12.050;2023-06-14T10:18:31;21.80;99.90
13123;DHT22;6627;50.920;12.050;2023-06-14T10:21:13;21.30;99.90
13123;DHT22;6627;50.920;12.050;2023-06-14T10:23:45;21.30;99.90
13123;DHT22;6627;50.920;12.050;2023-06-14T10:26:19;21.50;99.90
13123;DHT22;6627;50.920;12.050;2023-06-14T10:29:00;21.90;99.90
13123;DHT22;6627;50.920;12.050;2023-06-14T10:31:41;22.10;99.90
13123;DHT22;6627;50.920;12.050;2023-06-14T10:34:10;21.70;99.90
13123;DHT22;6627;50.920;12.050;2023-06-14T10:36:42;21.60;99.90
13123;DHT22;6627;50.920;12.050;2023-06-14T10:39:14;21.80;99.90
13123;DHT22;6627;50.920;12.050;2023-06-14T10:41:51;22.20;99.90
13123;DHT22;6627;50.920;12.050;2023-06-14T10:47:24;21.60;99.90
13123;DHT22;6627;50.920;12.050;2023-06-14T10:49:53;21.50;99.90
13123;DHT22;6627;50.920;12.050;2023-06-14T10:52:23;21.30;99.90
13123;DHT22;6627;50.920;12.050;2023-06-14T10:55:00;21.20;99.90
13123;DHT22;6627;50.920;12.050;2023-06-14T10:57:32;21.60;99.90
13123;DHT22;6627;50.920;12.050;2023-06-14T11:00:02;21.90;99.90
13123;DHT22;6627;50.920;12.050;2023-06-14T11:06:00;22.20;99.90
13123;DHT22;6627;50.920;12.050;2023-06-14T11:08:45;22.00;99.90
13123;DHT22;6627;50.920;12.050;2023-06-14T11:11:42;22.00;99.90
13123;DHT22;6627;50.920;12.050;2023-06-14T11:14:10;21.90;99.90
13123;DHT22;6627;50.920;12.050;2023-06-14T11:16:39;21.60;99.90
13123;DHT22;6627;50.920;12.050;2023-06-14T11:19:06;21.40;99.90
13123;DHT22;6627;50.920;12.050;2023-06-14T11:21:34;21.60;99.90
13123;DHT22;6627;50.920;12.050;2023-06-14T11:24:10;22.10;99.90
13123;DHT22;6627;50.920;12.050;2023-06-14T11:26:39;22.00;99.90
13123;DHT22;6627;50.920;12.050;2023-06-14T11:29:07;21.80;99.90
13123;DHT22;6627;50.920;12.050;2023-06-14T11:31:35;21.50;99.90
13123;DHT22;6627;50.920;12.050;2023-06-14T11:34:03;21.40;99.90
13123;DHT22;6627;50.920;12.050;2023-06-14T11:36:34;22.00;99.90
13123;DHT22;6627;50.920;12.050;2023-06-14T11:39:02;21.90;99.90
13123;DHT22;6627;50.920;12.050;2023-06-14T11:41:36;22.10;98.70
13123;DHT22;6627;50.920;12.050;2023-06-14T11:46:35;22.30;98.70
13123;DHT22;6627;50.920;12.050;2023-06-14T11:49:04;22.10;99.90
13123;DHT22;6627;50.920;12.050;2023-06-14T11:51:34;22.00;99.90
13123;DHT22;6627;50.920;12.050;2023-06-14T11:54:03;22.00;99.90
13123;DHT22;6627;50.920;12.050;2023-06-14T11:56:31;21.80;99.90
13123;DHT22;6627;50.920;12.050;2023-06-14T11:58:59;21.40;99.90
13123;DHT22;6627;50.920;12.050;2023-06-14T12:01:26;21.40;99.90
13123;DHT22;6627;50.920;12.050;2023-06-14T12:03:54;21.90;99.70
13123;DHT22;6627;50.920;12.050;2023-06-14T12:06:30;22.00;99.50
13123;DHT22;6627;50.920;12.050;2023-06-14T12:09:03;22.10;97.60
13123;DHT22;6627;50.920;12.050;2023-06-14T12:11:34;22.00;99.80
13123;DHT22;6627;50.920;12.050;2023-06-14T12:14:03;22.00;99.80
13123;DHT22;6627;50.920;12.050;2023-06-14T12:16:32;21.80;99.90
13123;DHT22;6627;50.920;12.050;2023-06-14T12:19:08;21.80;99.50
13123;DHT22;6627;50.920;12.050;2023-06-14T12:21:38;22.10;98.30
13123;DHT22;6627;50.920;12.050;2023-06-14T12:24:07;22.10;99.20
13123;DHT22;6627;50.920;12.050;2023-06-14T12:26:38;22.40;98.40
13123;DHT22;6627;50.920;12.050;2023-06-14T12:29:07;22.70;97.90
13123;DHT22;6627;50.920;12.050;2023-06-14T12:31:35;22.90;95.20
13123;DHT22;6627;50.920;12.050;2023-06-14T12:34:02;22.90;96.10
13123;DHT22;6627;50.920;12.050;2023-06-14T12:36:29;22.60;94.20
13123;DHT22;6627;50.920;12.050;2023-06-14T12:38:59;22.90;97.30
13123;DHT22;6627;50.920;12.050;2023-06-14T12:41:26;23.00;96.30
13123;DHT22;6627;50.920;12.050;2023-06-14T12:43:53;22.50;95.30
13123;DHT22;6627;50.920;12.050;2023-06-14T12:46:21;22.20;98.10
13123;DHT22;6627;50.920;12.050;2023-06-14T12:48:48;22.40;97.80
13123;DHT22;6627;50.920;12.050;2023-06-14T12:51:16;22.80;96.20
13123;DHT22;6627;50.920;12.050;2023-06-14T12:53:43;22.90;97.20
13123;DHT22;6627;50.920;12.050;2023-06-14T12:56:12;23.00;99.10
13123;DHT22;6627;50.920;12.050;2023-06-14T12:58:39;22.80;96.70
13123;DHT22;6627;50.920;12.050;2023-06-14T13:01:06;22.70;97.00
13123;DHT22;6627;50.920;12.050;2023-06-14T13:03:34;22.80;96.80
13123;DHT22;6627;50.920;12.050;2023-06-14T13:06:01;23.10;96.60
13123;DHT22;6627;50.920;12.050;2023-06-14T13:08:30;23.10;97.00
13123;DHT22;6627;50.920;12.050;2023-06-14T13:10:57;23.10;94.60
13123;DHT22;6627;50.920;12.050;2023-06-14T13:13:26;23.10;94.90
13123;DHT22;6627;50.920;12.050;2023-06-14T13:15:53;23.00;95.70
13123;DHT22;6627;50.920;12.050;2023-06-14T13:18:20;23.10;95.50
13123;DHT22;6627;50.920;12.050;2023-06-14T13:20:47;23.30;94.90
13123;DHT22;6627;50.920;12.050;2023-06-14T13:23:15;23.10;94.60
13123;DHT22;6627;50.920;12.050;2023-06-14T13:25:44;23.20;95.50
13123;DHT22;6627;50.920;12.050;2023-06-14T13:28:11;23.20;94.60
13123;DHT22;6627;50.920;12.050;2023-06-14T13:30:40;23.50;95.50
13123;DHT22;6627;50.920;12.050;2023-06-14T13:35:35;23.30;99.90
13123;DHT22;6627;50.920;12.050;2023-06-14T13:38:02;23.70;95.50
13123;DHT22;6627;50.920;12.050;2023-06-14T13:40:29;23.70;94.60
13123;DHT22;6627;50.920;12.050;2023-06-14T13:42:56;23.80;95.00
13123;DHT22;6627;50.920;12.050;2023-06-14T13:45:24;23.90;94.50
13123;DHT22;6627;50.920;12.050;2023-06-14T13:47:52;23.50;96.10
13123;DHT22;6627;50.920;12.050;2023-06-14T13:50:20;23.20;96.10
13123;DHT22;6627;50.920;12.050;2023-06-14T13:55:16;23.30;94.10
13123;DHT22;6627;50.920;12.050;2023-06-14T13:57:43;23.30;93.00
13123;DHT22;6627;50.920;12.050;2023-06-14T14:00:12;23.20;94.10
13123;DHT22;6627;50.920;12.050;2023-06-14T14:02:40;23.20;93.10
13123;DHT22;6627;50.920;12.050;2023-06-14T14:05:09;23.20;91.30
13123;DHT22;6627;50.920;12.050;2023-06-14T14:07:36;23.00;91.70
13123;DHT22;6627;50.920;12.050;2023-06-14T14:10:04;23.30;94.00
13123;DHT22;6627;50.920;12.050;2023-06-14T14:12:32;23.60;93.70
13123;DHT22;6627;50.920;12.050;2023-06-14T14:15:00;23.60;93.60
13123;DHT22;6627;50.920;12.050;2023-06-14T14:17:27;23.30;92.80
13123;DHT22;6627;50.920;12.050;2023-06-14T14:19:54;23.10;92.10
13123;DHT22;6627;50.920;12.050;2023-06-14T14:22:23;22.80;91.90
13123;DHT22;6627;50.920;12.050;2023-06-14T14:24:50;22.50;93.40
13123;DHT22;6627;50.920;12.050;2023-06-14T14:27:17;22.80;93.10
13123;DHT22;6627;50.920;12.050;2023-06-14T14:29:44;23.20;93.40
13123;DHT22;6627;50.920;12.050;2023-06-14T14:32:12;23.40;92.40
13123;DHT22;6627;50.920;12.050;2023-06-14T14:34:40;23.40;91.40
13123;DHT22;6627;50.920;12.050;2023-06-14T14:37:07;23.20;91.60
13123;DHT22;6627;50.920;12.050;2023-06-14T14:39:37;23.00;91.60
13123;DHT22;6627;50.920;12.050;2023-06-14T14:42:04;22.80;92.80
13123;DHT22;6627;50.920;12.050;2023-06-14T14:44:33;22.60;93.20
13123;DHT22;6627;50.920;12.050;2023-06-14T14:47:01;22.40;94.50
13123;DHT22;6627;50.920;12.050;2023-06-14T14:49:28;22.40;94.10
13123;DHT22;6627;50.920;12.050;2023-06-14T14:51:56;22.30;93.70
13123;DHT22;6627;50.920;12.050;2023-06-14T14:54:23;22.20;93.00
13123;DHT22;6627;50.920;12.050;2023-06-14T14:56:52;22.00;93.80
13123;DHT22;6627;50.920;12.050;2023-06-14T14:59:19;21.80;93.30
13123;DHT22;6627;50.920;12.050;2023-06-14T15:01:47;22.10;93.40
13123;DHT22;6627;50.920;12.050;2023-06-14T15:04:15;22.50;94.50
13123;DHT22;6627;50.920;12.050;2023-06-14T15:06:42;22.70;95.00
13123;DHT22;6627;50.920;12.050;2023-06-14T15:09:09;22.60;96.90
13123;DHT22;6627;50.920;12.050;2023-06-14T15:14:05;22.40;97.30
13123;DHT22;6627;50.920;12.050;2023-06-14T15:16:32;22.30;99.30
13123;DHT22;6627;50.920;12.050;2023-06-14T15:19:00;22.20;99.90
13123;DHT22;6627;50.920;12.050;2023-06-14T15:21:27;22.00;99.90
13123;DHT22;6627;50.920;12.050;2023-06-14T15:23:54;21.90;99.90
13123;DHT22;6627;50.920;12.050;2023-06-14T15:26:21;21.90;99.90
13123;DHT22;6627;50.920;12.050;2023-06-14T15:28:50;21.80;99.90
13123;DHT22;6627;50.920;12.050;2023-06-14T15:31:18;21.50;99.90
13123;DHT22;6627;50.920;12.050;2023-06-14T15:33:45;21.60;99.90
13123;DHT22;6627;50.920;12.050;2023-06-14T15:36:13;21.50;99.90
13123;DHT22;6627;50.920;12.050;2023-06-14T15:38:40;21.50;99.90
13123;DHT22;6627;50.920;12.050;2023-06-14T15:41:07;21.60;99.90
13123;DHT22;6627;50.920;12.050;2023-06-14T15:43:34;21.40;99.90
13123;DHT22;6627;50.920;12.050;2023-06-14T15:46:02;21.30;99.90
13123;DHT22;6627;50.920;12.050;2023-06-14T15:48:31;21.40;99.90
13123;DHT22;6627;50.920;12.050;2023-06-14T15:50:58;21.60;99.90
13123;DHT22;6627;50.920;12.050;2023-06-14T15:53:25;21.60;99.90
13123;DHT22;6627;50.920;12.050;2023-06-14T15:55:52;21.50;99.90
13123;DHT22;6627;50.920;12.050;2023-06-14T15:58:19;21.70;99.90
13123;DHT22;6627;50.920;12.050;2023-06-14T16:00:47;21.80;99.90
13123;DHT22;6627;50.920;12.050;2023-06-14T16:03:15;21.90;99.90